createdAt,value
2023-02-28T00:03:16.460Z,2.04
2023-02-28T00:07:18.192Z,1.93
2023-02-28T00:11:19.903Z,1.88
2023-02-28T00:15:23.730Z,1.81
2023-02-28T00:19:25.317Z,1.71
2023-02-28T00:23:27.439Z,1.60
2023-02-28T00:27:29.145Z,1.56
2023-02-28T00:31:31.001Z,1.54
2023-02-28T00:35:32.913Z,1.47
2023-02-28T00:39:36.121Z,1.42
2023-02-28T00:43:39.543Z,1.38
2023-02-28T00:47:41.294Z,1.29
2023-02-28T00:51:43.054Z,1.25
2023-02-28T00:55:44.678Z,1.24
2023-02-28T00:59:46.344Z,1.21
2023-02-28T01:03:47.888Z,1.17
2023-02-28T01:07:49.416Z,1.17
2023-02-28T01:11:51.191Z,1.11
2023-02-28T01:15:56.694Z,1.10
2023-02-28T01:19:58.378Z,1.08
2023-02-28T01:24:00.572Z,1.04
2023-02-28T01:28:02.626Z,1.02
2023-02-28T01:32:04.388Z,1.00
2023-02-28T01:36:09.975Z,0.98
2023-02-28T01:40:12.709Z,0.98
2023-02-28T01:44:52.049Z,0.93
2023-02-28T01:49:29.040Z,0.93
2023-02-28T01:53:35.943Z,0.90
2023-02-28T01:57:49.847Z,0.86
2023-02-28T02:01:51.574Z,0.82
2023-02-28T02:05:54.397Z,0.77
2023-02-28T02:10:06.861Z,0.75
2023-02-28T02:14:30.329Z,0.75
2023-02-28T02:18:47.566Z,0.71
2023-02-28T02:23:09.087Z,0.67
2023-02-28T02:27:10.553Z,0.64
2023-02-28T02:31:34.457Z,0.62
2023-02-28T02:35:48.292Z,0.59
2023-02-28T02:40:01.219Z,0.59
2023-02-28T02:44:11.545Z,0.59
2023-02-28T02:48:17.546Z,0.52
2023-02-28T02:52:24.158Z,0.52
2023-02-28T02:56:30.505Z,0.48
2023-02-28T03:00:47.628Z,0.45
2023-02-28T03:05:03.289Z,0.45
2023-02-28T03:09:05.800Z,0.48
2023-02-28T03:13:26.072Z,0.43
2023-02-28T03:18:02.073Z,0.45
2023-02-28T03:22:33.814Z,0.41
2023-02-28T03:26:40.379Z,0.37
2023-02-28T03:30:56.167Z,0.37
2023-02-28T03:35:12.866Z,0.37
2023-02-28T03:39:23.237Z,0.30
2023-02-28T03:43:30.421Z,0.28
2023-02-28T03:47:59.376Z,0.28
2023-02-28T03:52:03.604Z,0.22
2023-02-28T03:56:12.867Z,0.20
2023-02-28T04:00:29.345Z,0.19
2023-02-28T04:04:31.035Z,0.17
2023-02-28T04:08:32.930Z,0.16
2023-02-28T04:12:34.432Z,0.13
2023-02-28T04:16:38.891Z,0.15
2023-02-28T04:20:40.475Z,0.16
2023-02-28T04:24:42.435Z,0.13
2023-02-28T04:28:43.981Z,0.13
2023-02-28T04:32:45.746Z,0.13
2023-02-28T04:36:56.846Z,0.05
2023-02-28T04:41:04.977Z,0.07
2023-02-28T04:45:07.334Z,0.05
2023-02-28T04:49:11.647Z,0.04
2023-02-28T04:53:13.145Z,0.01
2023-02-28T04:57:15.136Z,-0.03
2023-02-28T05:01:24.145Z,-0.01
2023-02-28T05:05:25.690Z,-0.02
2023-02-28T05:09:27.189Z,-0.01
2023-02-28T05:13:28.875Z,0.02
2023-02-28T05:17:30.384Z,0.05
2023-02-28T05:21:34.787Z,0.15
2023-02-28T05:25:36.381Z,0.19
2023-02-28T05:29:42.549Z,0.23
2023-02-28T05:33:44.158Z,0.26
2023-02-28T05:37:45.795Z,0.22
2023-02-28T05:41:47.307Z,0.23
2023-02-28T05:45:49.110Z,0.30
2023-02-28T05:49:50.728Z,0.34
2023-02-28T05:53:52.339Z,0.37
2023-02-28T05:57:53.912Z,0.35
2023-02-28T06:01:56.400Z,0.35
2023-02-28T06:05:57.967Z,0.38
2023-02-28T06:09:59.503Z,0.37
2023-02-28T06:14:02.087Z,0.38
2023-02-28T06:18:03.784Z,0.40
2023-02-28T06:22:05.449Z,0.41
2023-02-28T06:26:06.987Z,0.45
2023-02-28T06:30:08.943Z,0.56
2023-02-28T06:34:12.409Z,0.60
2023-02-28T06:38:13.961Z,0.67
2023-02-28T06:42:15.622Z,0.70
2023-02-28T06:46:17.155Z,0.77
2023-02-28T06:50:20.454Z,0.82
2023-02-28T06:54:21.985Z,0.84
2023-02-28T06:58:23.543Z,0.92
2023-02-28T07:02:25.075Z,0.96
2023-02-28T07:06:26.763Z,0.96
2023-02-28T07:10:28.410Z,1.08
2023-02-28T07:14:29.998Z,1.13
2023-02-28T07:18:31.793Z,1.16
2023-02-28T07:22:33.308Z,1.18
2023-02-28T07:26:37.698Z,1.24
2023-02-28T07:30:39.485Z,1.29
2023-02-28T07:34:40.997Z,1.38
2023-02-28T07:38:49.031Z,1.46
2023-02-28T07:42:50.593Z,1.57
2023-02-28T07:46:53.786Z,1.68
2023-02-28T07:51:00.230Z,1.77
2023-02-28T07:55:01.801Z,1.85
2023-02-28T07:59:03.388Z,1.88
2023-02-28T08:03:05.024Z,1.95
2023-02-28T08:07:06.596Z,2.05
2023-02-28T08:11:08.154Z,2.23
2023-02-28T08:15:10.097Z,2.40
2023-02-28T08:19:11.693Z,2.55
2023-02-28T08:23:13.199Z,2.59
2023-02-28T08:27:14.795Z,2.63
2023-02-28T08:31:17.708Z,2.63
2023-02-28T08:35:19.373Z,2.58
2023-02-28T08:39:21.074Z,2.58
2023-02-28T08:43:22.606Z,2.56
2023-02-28T08:47:24.275Z,2.59
2023-02-28T08:51:28.842Z,2.68
2023-02-28T08:55:30.693Z,2.71
2023-02-28T08:59:33.270Z,2.77
2023-02-28T09:03:34.837Z,2.80
2023-02-28T09:07:36.474Z,2.95
2023-02-28T09:11:38.073Z,3.05
2023-02-28T09:15:40.060Z,3.15
2023-02-28T09:19:41.803Z,3.15
2023-02-28T09:23:44.956Z,3.22
2023-02-28T09:27:46.675Z,3.33
2023-02-28T09:31:48.381Z,3.33
2023-02-28T09:35:50.948Z,3.42
2023-02-28T09:39:52.928Z,3.59
2023-02-28T09:44:01.762Z,3.72
2023-02-28T09:48:11.660Z,3.82
2023-02-28T09:52:20.333Z,3.88
2023-02-28T09:56:42.263Z,3.96
2023-02-28T10:00:44.538Z,4.08
2023-02-28T10:04:56.195Z,4.18
2023-02-28T10:09:11.281Z,4.26
2023-02-28T10:13:35.540Z,4.42
2023-02-28T10:17:55.227Z,4.46
2023-02-28T10:22:10.169Z,4.47
2023-02-28T10:26:19.444Z,4.68
2023-02-28T10:30:21.256Z,4.83
2023-02-28T10:34:22.763Z,5.04
2023-02-28T10:38:28.505Z,5.20
2023-02-28T10:42:30.972Z,5.44
2023-02-28T10:46:34.928Z,5.70
2023-02-28T10:50:45.232Z,5.85
2023-02-28T10:54:46.940Z,6.03
2023-02-28T10:59:25.458Z,6.24
2023-02-28T11:03:36.034Z,6.16
2023-02-28T11:07:50.582Z,6.11
2023-02-28T11:11:54.488Z,6.17
2023-02-28T11:16:03.231Z,6.17
2023-02-28T11:20:08.193Z,6.25
2023-02-28T11:24:33.238Z,6.42
2023-02-28T11:28:37.272Z,6.19
2023-02-28T11:32:49.708Z,6.08
2023-02-28T11:36:52.469Z,6.08
2023-02-28T11:40:56.823Z,6.19
2023-02-28T11:45:24.481Z,6.17
2023-02-28T11:49:38.721Z,6.16
2023-02-28T11:53:46.349Z,6.10
2023-02-28T11:58:07.687Z,6.05
2023-02-28T12:02:26.855Z,5.98
2023-02-28T12:07:04.748Z,6.01
2023-02-28T12:11:18.001Z,6.14
2023-02-28T12:15:36.616Z,6.25
2023-02-28T12:19:56.487Z,6.46
2023-02-28T12:24:35.707Z,6.83
2023-02-28T12:28:48.098Z,7.05
2023-02-28T12:32:56.703Z,6.93
2023-02-28T12:37:02.278Z,7.04
2023-02-28T12:41:09.372Z,7.07
2023-02-28T12:45:23.629Z,7.11
2023-02-28T12:49:32.541Z,7.14
2023-02-28T12:54:04.610Z,7.08
2023-02-28T12:58:30.665Z,6.90
2023-02-28T13:02:52.137Z,6.89
2023-02-28T13:07:47.918Z,7.09
2023-02-28T13:11:54.838Z,7.15
2023-02-28T13:16:06.526Z,7.23
2023-02-28T13:20:30.672Z,7.26
2023-02-28T13:24:35.228Z,7.39
2023-02-28T13:28:54.103Z,7.57
2023-02-28T13:33:34.794Z,7.70
2023-02-28T13:37:43.235Z,7.79
2023-02-28T13:41:46.534Z,7.69
2023-02-28T13:46:14.220Z,7.77
2023-02-28T13:50:27.911Z,8.09
2023-02-28T13:54:46.296Z,8.09
2023-02-28T13:59:07.317Z,8.10
2023-02-28T14:03:17.649Z,8.10
2023-02-28T14:07:27.202Z,8.25
2023-02-28T14:11:35.372Z,8.40
2023-02-28T14:16:01.103Z,8.52
2023-02-28T14:20:04.495Z,8.58
2023-02-28T14:24:42.093Z,8.36
2023-02-28T14:29:21.120Z,8.04
2023-02-28T14:33:47.784Z,7.95
2023-02-28T14:37:50.739Z,7.95
2023-02-28T14:41:53.037Z,8.03
2023-02-28T14:46:01.892Z,7.89
2023-02-28T14:50:05.445Z,7.99
2023-02-28T14:54:07.301Z,7.79
2023-02-28T14:58:23.924Z,7.85
2023-02-28T15:02:26.883Z,7.85
2023-02-28T15:06:30.330Z,7.81
2023-02-28T15:10:33.288Z,7.81
2023-02-28T15:14:39.201Z,7.73
2023-02-28T15:18:53.428Z,7.62
2023-02-28T15:22:57.387Z,7.60
2023-02-28T15:27:01.082Z,7.55
2023-02-28T15:31:20.454Z,7.52
2023-02-28T15:35:30.569Z,7.24
2023-02-28T15:39:41.550Z,7.09
2023-02-28T15:43:43.137Z,7.00
2023-02-28T15:47:47.141Z,6.94
2023-02-28T15:51:52.625Z,6.82
2023-02-28T15:56:06.870Z,6.79
2023-02-28T16:00:13.792Z,6.86
2023-02-28T16:04:20.588Z,6.78
2023-02-28T16:08:22.170Z,6.71
2023-02-28T16:12:28.799Z,6.54
2023-02-28T16:16:32.057Z,6.48
2023-02-28T16:20:33.626Z,6.32
2023-02-28T16:24:35.197Z,6.21
2023-02-28T16:28:39.328Z,6.17
2023-02-28T16:32:41.051Z,6.05
2023-02-28T16:36:42.665Z,5.99
2023-02-28T16:40:44.624Z,5.87
2023-02-28T16:44:46.961Z,5.77
2023-02-28T16:48:52.334Z,5.69
2023-02-28T16:52:55.345Z,5.66
2023-02-28T16:56:56.978Z,5.58
2023-02-28T17:00:58.645Z,5.55
2023-02-28T17:05:00.280Z,5.49
2023-02-28T17:09:02.058Z,5.42
2023-02-28T17:13:14.444Z,5.38
2023-02-28T17:17:19.201Z,5.35
2023-02-28T17:21:20.837Z,5.33
2023-02-28T17:25:23.516Z,5.26
2023-02-28T17:29:25.598Z,5.22
2023-02-28T17:33:27.374Z,5.14
2023-02-28T17:37:29.148Z,5.14
2023-02-28T17:41:31.572Z,5.11
2023-02-28T17:45:35.624Z,5.06
2023-02-28T17:49:37.444Z,5.05
2023-02-28T17:53:39.218Z,5.06
2023-02-28T17:57:42.746Z,5.02
2023-02-28T18:01:44.508Z,4.99
2023-02-28T18:05:46.158Z,4.96
2023-02-28T18:09:47.696Z,4.94
2023-02-28T18:13:51.743Z,4.86
2023-02-28T18:17:53.378Z,4.86
2023-02-28T18:21:55.113Z,4.84
2023-02-28T18:25:56.719Z,4.80
2023-02-28T18:29:58.413Z,4.75
2023-02-28T18:34:00.547Z,4.69
2023-02-28T18:38:09.201Z,4.64
2023-02-28T18:42:11.784Z,4.57
2023-02-28T18:46:15.627Z,4.54
2023-02-28T18:50:17.485Z,4.51
2023-02-28T18:54:19.186Z,4.50
2023-02-28T18:58:20.744Z,4.46
2023-02-28T19:02:22.287Z,4.44
2023-02-28T19:06:23.864Z,4.42
2023-02-28T19:10:25.481Z,4.32
2023-02-28T19:14:27.065Z,4.31
2023-02-28T19:18:28.592Z,4.29
2023-02-28T19:22:30.213Z,4.25
2023-02-28T19:26:31.968Z,4.21
2023-02-28T19:30:33.600Z,4.18
2023-02-28T19:34:35.104Z,4.16
2023-02-28T19:38:36.780Z,4.10
2023-02-28T19:42:38.327Z,4.04
2023-02-28T19:46:39.912Z,4.00
2023-02-28T19:50:41.925Z,3.95
2023-02-28T19:54:43.479Z,3.92
2023-02-28T19:58:45.097Z,3.93
2023-02-28T20:02:48.482Z,3.93
2023-02-28T20:06:50.438Z,3.89
2023-02-28T20:10:52.175Z,3.89
2023-02-28T20:14:58.045Z,3.86
2023-02-28T20:19:00.747Z,3.86
2023-02-28T20:23:02.461Z,3.82
2023-02-28T20:27:04.374Z,3.82
2023-02-28T20:31:16.716Z,3.75
2023-02-28T20:35:18.288Z,3.72
2023-02-28T20:39:20.068Z,3.71
2023-02-28T20:43:23.658Z,3.68
2023-02-28T20:47:25.368Z,3.62
2023-02-28T20:51:27.052Z,3.59
2023-02-28T20:55:28.729Z,3.53
2023-02-28T20:59:30.331Z,3.46
2023-02-28T21:03:31.917Z,3.44
2023-02-28T21:07:33.477Z,3.39
2023-02-28T21:11:36.967Z,3.34
2023-02-28T21:15:38.644Z,3.33
2023-02-28T21:19:40.284Z,3.26
2023-02-28T21:23:42.617Z,3.33
2023-02-28T21:27:44.184Z,3.30
2023-02-28T21:31:45.808Z,3.26
2023-02-28T21:35:47.425Z,3.30
2023-02-28T21:39:48.963Z,3.30
2023-02-28T21:43:51.220Z,3.26
2023-02-28T21:47:52.786Z,3.20
2023-02-28T21:51:54.367Z,3.22
2023-02-28T21:55:55.936Z,3.22
2023-02-28T21:59:58.614Z,3.17
2023-02-28T22:04:01.527Z,3.19
2023-02-28T22:08:03.322Z,3.12
2023-02-28T22:12:08.404Z,3.15
2023-02-28T22:16:13.364Z,3.12
2023-02-28T22:20:15.037Z,3.12
2023-02-28T22:24:20.090Z,3.10
2023-02-28T22:28:23.167Z,3.07
2023-02-28T22:32:24.789Z,3.04
2023-02-28T22:36:27.131Z,3.01
2023-02-28T22:40:28.742Z,2.99
2023-02-28T22:44:30.307Z,2.97
2023-02-28T22:48:32.421Z,2.95
2023-02-28T22:52:33.998Z,2.94
2023-02-28T22:56:35.917Z,2.92
2023-02-28T23:00:38.437Z,2.86
2023-02-28T23:04:40.066Z,2.81
2023-02-28T23:08:42.516Z,2.79
2023-02-28T23:12:50.549Z,2.69
2023-02-28T23:16:54.240Z,2.68
2023-02-28T23:20:57.604Z,2.65
2023-02-28T23:24:59.249Z,2.65
2023-02-28T23:29:01.118Z,2.61
2023-02-28T23:33:02.738Z,2.58
2023-02-28T23:37:04.816Z,2.56
2023-02-28T23:41:08.235Z,2.51
2023-02-28T23:45:10.099Z,2.50
2023-02-28T23:49:11.899Z,2.45
2023-02-28T23:53:13.726Z,2.47
2023-02-28T23:57:15.340Z,2.44
